»·PEaware :: N1JG P20-KSNA

N1JG :: P20-KSNA

FLIGHT INFORMATION

Flight Status: Arrived
Operator: Privately registered:
United States
More flights under this callsign
Pilot: Josh G. (4619)
Aircraft: SOCATA TBM-900
(TBM9)
More flights by this aircraft type
Origin: P20 Avi Suquilla
United States
Destination: KSNA John Wayne-Orange Co
United States
More flights between these airports :: More routes between these airports
Route: +PSP V388 DEWAY FRETS KAYOH7
File this flight plan on PilotEdge
Remarks:
Altitude:
(Current/Filed)
22,000ft
Speed:
(Current/Filed)
280kts
Departed: 08-Feb-20 05:55 PM
Arrived: 08-Feb-20 06:48 PM
Distance/Time
Traveled:
181nm/0:53
Distance/Time
To Go:
Arrived

Flight Plot

Page will automatically refresh every two minutes.

Flight plan parsing failed; only flown route is shown


Map Options




Map Legend


Flown Route
Filed Route
Departure Airport
Arrival Airport
Navaid (VOR, NDB)
Fix

Horizontal Profiles

Position Reports

Time Latitude Longitude Heading Altitude Ground
Speed
08-Feb-20 17:51 34.153062 -114.272519 112 447ft 0kts
08-Feb-20 17:52 34.153062 -114.272519 112 447ft 0kts
08-Feb-20 17:53 34.152579 -114.271149 117 450ft 14kts
08-Feb-20 17:54 34.151260 -114.270836 206 451ft 82kts
08-Feb-20 17:55 34.128496 -114.309181 259 1943ft 178kts
08-Feb-20 17:56 34.121855 -114.367367 258 4404ft 175kts
08-Feb-20 17:57 34.115227 -114.425805 258 6691ft 177kts
08-Feb-20 17:58 34.108552 -114.484549 258 8724ft 177kts
08-Feb-20 17:59 34.101882 -114.542539 261 10468ft 179kts
08-Feb-20 18:00 34.094802 -114.604301 264 12321ft 182kts
08-Feb-20 18:01 34.087828 -114.663624 262 14055ft 183kts
08-Feb-20 18:02 34.080534 -114.725215 262 15622ft 186kts
08-Feb-20 18:03 34.073240 -114.787769 262 17009ft 188kts
08-Feb-20 18:04 34.065766 -114.851551 262 18575ft 192kts
08-Feb-20 18:05 34.058222 -114.915644 262 20259ft 195kts
08-Feb-20 18:06 34.050504 -114.980953 263 21877ft 200kts
08-Feb-20 18:08 34.041586 -115.056079 262 21917ft 244kts
08-Feb-20 18:09 34.031512 -115.140259 263 21914ft 257kts
08-Feb-20 18:10 34.021175 -115.226330 263 21917ft 260kts
08-Feb-20 18:11 34.010664 -115.313238 263 21915ft 261kts
08-Feb-20 18:12 34.000070 -115.400386 263 21915ft 262kts
08-Feb-20 18:13 33.989351 -115.488032 263 21915ft 264kts
08-Feb-20 18:14 33.978396 -115.576927 263 21915ft 270kts
08-Feb-20 18:15 33.967580 -115.664242 262 21919ft 272kts
08-Feb-20 18:16 33.956138 -115.756124 262 21920ft 273kts
08-Feb-20 18:17 33.944652 -115.847702 262 21919ft 274kts
08-Feb-20 18:18 33.933154 -115.938851 262 21919ft 274kts
08-Feb-20 18:19 33.921206 -116.029876 262 21925ft 274kts
08-Feb-20 18:20 33.908928 -116.120989 262 21931ft 273kts
08-Feb-20 18:21 33.896994 -116.209782 262 21933ft 273kts
08-Feb-20 18:22 33.884852 -116.300285 262 21929ft 273kts
08-Feb-20 18:23 33.873441 -116.386405 262 20305ft 249kts
08-Feb-20 18:24 33.863027 -116.467207 262 18950ft 236kts
08-Feb-20 18:25 33.864443 -116.544146 278 17935ft 233kts
08-Feb-20 18:26 33.874897 -116.628829 278 16841ft 270kts
08-Feb-20 18:27 33.883618 -116.718365 273 15606ft 281kts
08-Feb-20 18:27 33.887246 -116.797428 273 14532ft 282kts
08-Feb-20 18:28 33.876982 -116.887329 250 14064ft 269kts
08-Feb-20 18:30 33.843383 -116.986934 250 13295ft 263kts
08-Feb-20 18:30 33.820577 -117.054553 250 12861ft 258kts
08-Feb-20 18:31 33.793365 -117.134713 251 12349ft 257kts
08-Feb-20 18:32 33.776599 -117.217838 272 11684ft 265kts
08-Feb-20 18:33 33.777693 -117.306952 271 10604ft 272kts
08-Feb-20 18:34 33.778630 -117.399930 271 9283ft 278kts
08-Feb-20 18:35 33.780395 -117.492731 280 8057ft 275kts
08-Feb-20 18:36 33.795128 -117.580650 280 6934ft 257kts
08-Feb-20 18:37 33.814694 -117.660817 288 5820ft 246kts
08-Feb-20 18:38 33.860483 -117.714564 331 4674ft 235kts
08-Feb-20 18:39 33.918426 -117.749439 331 3563ft 227kts
08-Feb-20 18:40 33.924904 -117.797183 188 2972ft 205kts
08-Feb-20 18:41 33.868182 -117.786637 171 3028ft 212kts
08-Feb-20 18:42 33.810269 -117.782892 208 2940ft 198kts
08-Feb-20 18:43 33.766147 -117.811513 208 1942ft 176kts
08-Feb-20 18:44 33.728722 -117.835230 208 1119ft 120kts
08-Feb-20 18:45 33.700581 -117.853076 207 526ft 111kts
08-Feb-20 18:46 33.678731 -117.866900 208 60ft 70kts
08-Feb-20 18:47 33.676325 -117.870588 322 59ft 14kts
08-Feb-20 18:48 33.676670 -117.870349 122 59ft 0kts

Navigation Log

Ident Type
Flight plan parsing failed, navigation log unavailable